Baltic Frost — 9HA2868 — position and weather

sailwx.info

Track history (hours):
 
Tides and Currents Weather Stations Pressure Air Temp Water Temp Dewpoint Dewpoint Depression Visibility Wind Speed Wind Dir Waves Ship Positions

Baltic Frost

Last reported at 2014-Dec-19 16:21 UTC. Time now 2014-Dec-22 09:54 UTC.
Position N 55°39' E 015°45'.

Length 182 m; draft 7 m.

Type: Ship. MMSI: 256495000.

Date/timePositionNaut miles runAvg speedWind from/ knotsBaromVisibWave heightAir tempDewpointWater temp
2014-Dec-19 16:21N 55°39' E 015°45'1412.1
2014-Dec-19 15:11N 55°35' E 015°21'6 9.4
2014-Dec-19 14:33N 55°32' E 015°12'9 9.4
2014-Dec-19 13:33N 55°28' E 014°56'10 9.9
2014-Dec-19 12:33N 55°24' E 014°40'9 9.2
2014-Dec-19 11:33N 55°17' E 014°30'9 8.9
2014-Dec-19 10:33N 55°11' E 014°20'1010.2
2014-Dec-19 09:33N 55°11' E 014°02'10 9.5
2014-Dec-19 08:33N 55°11' E 013°45'1211.6
2014-Dec-19 07:29N 55°11' E 013°24'1011.1
2014-Dec-19 06:33N 55°12' E 013°06'9 9.3
2014-Dec-19 05:33N 55°15' E 012°50'8 8.0
2014-Dec-19 04:33N 55°20' E 012°38'9 9.0
2014-Dec-19 03:33N 55°28' E 012°41'9 9.5
2014-Dec-19 02:33N 55°38' E 012°42'10 9.6
2014-Dec-19 01:33N 55°48' E 012°42'9 9.3
2014-Dec-19 00:33N 55°57' E 012°40'9 9.4
2014-Dec-18 23:33N 56°06' E 012°34'8 8.3
2014-Dec-18 22:33N 56°11' E 012°22'24 8.0
2014-Dec-18 19:33N 56°31' E 011°58'1010.4
2014-Dec-18 18:33N 56°41' E 011°54'1010.4
2014-Dec-18 17:33N 56°51' E 011°48'1110.6
2014-Dec-18 16:33N 57°01' E 011°42'1110.6
2014-Dec-18 15:33N 57°11' E 011°35'1010.3
2014-Dec-18 14:33N 57°20' E 011°29'1010.0
2014-Dec-18 13:33N 57°29' E 011°21'1010.4
2014-Dec-18 12:33N 57°36' E 011°06'1010.4
2014-Dec-18 11:33N 57°43' E 010°52'1010.2
2014-Dec-18 10:33N 57°48' E 010°34'1110.8
2014-Dec-18 09:33N 57°47' E 010°14'7111.3
2014-Dec-18 03:17N 57°13' E 008°18'10510.8
2014-Dec-17 17:33N 55°44' E 006°37'1010.2
2014-Dec-17 16:33N 55°35' E 006°27'9110.1
2014-Dec-17 07:31N 54°17' E 005°05'1111.6
2014-Dec-17 06:33N 54°07' E 004°56'1010.3
2014-Dec-17 05:33N 53°60' E 004°44'147 8.7
2014-Dec-16 12:33N 51°45' E 003°03'10 9.8
2014-Dec-16 11:34N 51°42' E 003°18'1312.6
2014-Dec-16 10:33N 51°31' E 003°26'1111.2
2014-Dec-16 09:34N 51°25' E 003°42'1 1.3
2014-Dec-16 08:33N 51°25' E 003°44'0 0.0
2014-Dec-16 07:32N 51°25' E 003°44'0 0.0
2014-Dec-16 06:32N 51°25' E 003°44'0 0.0
2014-Dec-16 05:29N 51°25' E 003°44'0 0.0
2014-Dec-16 04:22N 51°25' E 003°44'0 0.0
2014-Dec-16 03:31N 51°25' E 003°44'0 0.0
2014-Dec-16 02:33N 51°25' E 003°44'0 0.0
2014-Dec-16 01:09N 51°25' E 003°44'0 0.0
2014-Dec-15 23:32N 51°25' E 003°44'0 0.0
2014-Dec-15 22:31N 51°25' E 003°44'0 0.0
2014-Dec-15 21:31N 51°25' E 003°44'0 0.0
2014-Dec-15 20:31N 51°25' E 003°44'0 0.0
2014-Dec-15 19:33N 51°25' E 003°44'0 0.0
2014-Dec-15 18:33N 51°25' E 003°44'0 0.0
2014-Dec-15 17:32N 51°25' E 003°44'0 0.0
2014-Dec-15 16:32N 51°25' E 003°44'0 0.0
2014-Dec-15 15:31N 51°25' E 003°44'0 0.0
2014-Dec-15 14:28N 51°25' E 003°44'0 0.0
2014-Dec-15 13:31N 51°25' E 003°44'0 0.0
2014-Dec-15 12:33N 51°25' E 003°44'0 0.0
2014-Dec-15 11:33N 51°25' E 003°44'0 0.0
2014-Dec-15 10:32N 51°25' E 003°44'0 0.0
2014-Dec-15 09:32N 51°25' E 003°44'0 0.0
2014-Dec-15 08:31N 51°25' E 003°44'0 0.0
2014-Dec-15 07:31N 51°25' E 003°44'0 0.0
2014-Dec-15 06:31N 51°25' E 003°44'0 0.0
2014-Dec-15 05:33N 51°25' E 003°44'0 0.0
2014-Dec-15 04:33N 51°25' E 003°44'0 0.0
2014-Dec-15 03:29N 51°25' E 003°44'0 0.0
2014-Dec-15 02:32N 51°25' E 003°44'0 0.0
2014-Dec-15 01:28N 51°25' E 003°44'0 0.0
2014-Dec-15 00:28N 51°25' E 003°44'0 0.0
2014-Dec-14 23:34N 51°25' E 003°44'0 0.0
2014-Dec-14 22:33N 51°25' E 003°44'0 0.0
2014-Dec-14 21:33N 51°25' E 003°44'0 0.0
2014-Dec-14 20:32N 51°25' E 003°44'0 0.0
2014-Dec-14 19:32N 51°25' E 003°44'0 0.0
2014-Dec-14 18:31N 51°25' E 003°44'0 0.0
2014-Dec-14 17:31N 51°25' E 003°44'0 0.0
2014-Dec-14 16:31N 51°25' E 003°44'0 0.0
2014-Dec-14 15:33N 51°25' E 003°44'0 0.0
2014-Dec-14 14:30N 51°25' E 003°44'0 0.0
2014-Dec-14 13:32N 51°25' E 003°44'0 0.0
2014-Dec-14 12:32N 51°25' E 003°44'0 0.0
2014-Dec-14 11:28N 51°25' E 003°44'0 0.0
2014-Dec-14 10:28N 51°25' E 003°44'0 0.0
2014-Dec-14 09:33N 51°25' E 003°44'0 0.0
2014-Dec-14 08:33N 51°25' E 003°44'0 0.0
2014-Dec-14 07:30N 51°25' E 003°44'0 0.0
2014-Dec-14 06:32N 51°25' E 003°44'0 0.0
2014-Dec-14 05:32N 51°25' E 003°44'0 0.0
2014-Dec-14 04:31N 51°25' E 003°44'0 0.0
2014-Dec-14 03:31N 51°25' E 003°44'0 0.0
2014-Dec-14 02:33N 51°25' E 003°44'0 0.0
2014-Dec-14 01:33N 51°25' E 003°44'0 0.0
2014-Dec-14 00:33N 51°25' E 003°44'0 0.0
2014-Dec-13 23:32N 51°25' E 003°44'0 0.0
2014-Dec-13 22:29N 51°25' E 003°44'0 0.0
2014-Dec-13 21:31N 51°25' E 003°44'0 0.0
2014-Dec-13 20:31N 51°25' E 003°44'0 0.0
2014-Dec-13 19:33N 51°25' E 003°44'3 2.6
2014-Dec-13 18:33N 51°26' E 003°40'6 6.4
2014-Dec-13 17:33N 51°25' E 003°30'9 9.4
2014-Dec-13 16:33N 51°25' E 003°15'1211.7
2014-Dec-13 15:33N 51°23' E 002°57'10 9.2
2014-Dec-13 14:29N 51°24' E 002°41'4 4.0
2014-Dec-13 13:32N 51°26' E 002°36'0 0.0
2014-Dec-13 12:29N 51°26' E 002°35'0 0.0
2014-Dec-13 11:31N 51°26' E 002°36'0 0.0
2014-Dec-13 10:31N 51°26' E 002°36'0 0.1
2014-Dec-13 09:33N 51°26' E 002°36'0 0.1
2014-Dec-13 08:33N 51°26' E 002°36'0 0.1
2014-Dec-13 07:33N 51°26' E 002°36'0 0.0
2014-Dec-13 06:32N 51°26' E 002°36'0 0.0
2014-Dec-13 05:32N 51°26' E 002°36'0 0.0
2014-Dec-13 04:31N 51°26' E 002°36'0 0.1
2014-Dec-13 03:25N 51°26' E 002°36'0 0.1
2014-Dec-13 02:33N 51°26' E 002°36'0 0.1
2014-Dec-13 01:33N 51°26' E 002°36'0 0.0
2014-Dec-13 00:29N 51°26' E 002°35'1 1.4
2014-Dec-12 23:33N 51°24' E 002°35'10 9.6
2014-Dec-12 22:28N 51°19' E 002°20'1111.8
2014-Dec-12 21:34N 51°22' E 002°04'1010.2
2014-Dec-12 20:34N 51°32' E 002°08'1312.8
2014-Dec-12 19:34N 51°41' E 002°22'29510.5
2014-Dec-11 15:32N 55°60' E 006°23'1010.2
2014-Dec-11 14:32N 56°09' E 006°30'78 8.3
2014-Dec-11 05:08N 57°11' E 007°57'89 8.2
2014-Dec-10 18:20N 57°49' E 010°27'810.8
2014-Dec-10 17:33N 57°48' E 010°43'1211.6
2014-Dec-10 16:33N 57°41' E 010°60'1313.0
2014-Dec-10 15:33N 57°32' E 011°17'1313.2
2014-Dec-10 14:33N 57°21' E 011°30'1313.5
2014-Dec-10 13:33N 57°08' E 011°39'1312.7
2014-Dec-10 12:33N 56°56' E 011°46'1212.1
2014-Dec-10 11:33N 56°45' E 011°53'13011.8
2014-Dec-10 00:31N 54°39' E 010°49'2411.8
2014-Dec-09 22:28N 54°31' E 011°28'1111.7
2014-Dec-09 21:33N 54°28' E 011°46'1212.0
2014-Dec-09 20:31N 54°27' E 012°07'1010.7
2014-Dec-09 19:33N 54°36' E 012°16'  
Track history (hours):
 
Tides and Currents Weather Stations Pressure Air Temp Water Temp Dewpoint Dewpoint Depression Visibility Wind Speed Wind Dir Waves Ship Positions

Baltic Frost

Last reported at 2014-Dec-19 16:21 UTC. Time now 2014-Dec-22 09:54 UTC.
Position N 55°39' E 015°45'.

Length 182 m; draft 7 m.

Type: Ship. MMSI: 256495000.

Date/timePositionNaut miles runAvg speedWind from/ knotsBaromVisibWave heightAir tempDewpointWater temp
2014-Dec-19 16:21N 55°39' E 015°45'1412.1
2014-Dec-19 15:11N 55°35' E 015°21'6 9.4
2014-Dec-19 14:33N 55°32' E 015°12'9 9.4
2014-Dec-19 13:33N 55°28' E 014°56'10 9.9
2014-Dec-19 12:33N 55°24' E 014°40'9 9.2
2014-Dec-19 11:33N 55°17' E 014°30'9 8.9
2014-Dec-19 10:33N 55°11' E 014°20'1010.2
2014-Dec-19 09:33N 55°11' E 014°02'10 9.5
2014-Dec-19 08:33N 55°11' E 013°45'1211.6
2014-Dec-19 07:29N 55°11' E 013°24'1011.1
2014-Dec-19 06:33N 55°12' E 013°06'9 9.3
2014-Dec-19 05:33N 55°15' E 012°50'8 8.0
2014-Dec-19 04:33N 55°20' E 012°38'9 9.0
2014-Dec-19 03:33N 55°28' E 012°41'9 9.5
2014-Dec-19 02:33N 55°38' E 012°42'10 9.6
2014-Dec-19 01:33N 55°48' E 012°42'9 9.3
2014-Dec-19 00:33N 55°57' E 012°40'9 9.4
2014-Dec-18 23:33N 56°06' E 012°34'8 8.3
2014-Dec-18 22:33N 56°11' E 012°22'24 8.0
2014-Dec-18 19:33N 56°31' E 011°58'1010.4
2014-Dec-18 18:33N 56°41' E 011°54'1010.4
2014-Dec-18 17:33N 56°51' E 011°48'1110.6
2014-Dec-18 16:33N 57°01' E 011°42'1110.6
2014-Dec-18 15:33N 57°11' E 011°35'1010.3
2014-Dec-18 14:33N 57°20' E 011°29'1010.0
2014-Dec-18 13:33N 57°29' E 011°21'1010.4
2014-Dec-18 12:33N 57°36' E 011°06'1010.4
2014-Dec-18 11:33N 57°43' E 010°52'1010.2
2014-Dec-18 10:33N 57°48' E 010°34'1110.8
2014-Dec-18 09:33N 57°47' E 010°14'7111.3
2014-Dec-18 03:17N 57°13' E 008°18'10510.8
2014-Dec-17 17:33N 55°44' E 006°37'1010.2
2014-Dec-17 16:33N 55°35' E 006°27'9110.1
2014-Dec-17 07:31N 54°17' E 005°05'1111.6
2014-Dec-17 06:33N 54°07' E 004°56'1010.3
2014-Dec-17 05:33N 53°60' E 004°44'147 8.7
2014-Dec-16 12:33N 51°45' E 003°03'10 9.8
2014-Dec-16 11:34N 51°42' E 003°18'1312.6
2014-Dec-16 10:33N 51°31' E 003°26'1111.2
2014-Dec-16 09:34N 51°25' E 003°42'1 1.3
2014-Dec-16 08:33N 51°25' E 003°44'0 0.0
2014-Dec-16 07:32N 51°25' E 003°44'0 0.0
2014-Dec-16 06:32N 51°25' E 003°44'0 0.0
2014-Dec-16 05:29N 51°25' E 003°44'0 0.0
2014-Dec-16 04:22N 51°25' E 003°44'0 0.0
2014-Dec-16 03:31N 51°25' E 003°44'0 0.0
2014-Dec-16 02:33N 51°25' E 003°44'0 0.0
2014-Dec-16 01:09N 51°25' E 003°44'0 0.0
2014-Dec-15 23:32N 51°25' E 003°44'0 0.0
2014-Dec-15 22:31N 51°25' E 003°44'0 0.0
2014-Dec-15 21:31N 51°25' E 003°44'0 0.0
2014-Dec-15 20:31N 51°25' E 003°44'0 0.0
2014-Dec-15 19:33N 51°25' E 003°44'0 0.0
2014-Dec-15 18:33N 51°25' E 003°44'0 0.0
2014-Dec-15 17:32N 51°25' E 003°44'0 0.0
2014-Dec-15 16:32N 51°25' E 003°44'0 0.0
2014-Dec-15 15:31N 51°25' E 003°44'0 0.0
2014-Dec-15 14:28N 51°25' E 003°44'0 0.0
2014-Dec-15 13:31N 51°25' E 003°44'0 0.0
2014-Dec-15 12:33N 51°25' E 003°44'0 0.0
2014-Dec-15 11:33N 51°25' E 003°44'0 0.0
2014-Dec-15 10:32N 51°25' E 003°44'0 0.0
2014-Dec-15 09:32N 51°25' E 003°44'0 0.0
2014-Dec-15 08:31N 51°25' E 003°44'0 0.0
2014-Dec-15 07:31N 51°25' E 003°44'0 0.0
2014-Dec-15 06:31N 51°25' E 003°44'0 0.0
2014-Dec-15 05:33N 51°25' E 003°44'0 0.0
2014-Dec-15 04:33N 51°25' E 003°44'0 0.0
2014-Dec-15 03:29N 51°25' E 003°44'0 0.0
2014-Dec-15 02:32N 51°25' E 003°44'0 0.0
2014-Dec-15 01:28N 51°25' E 003°44'0 0.0
2014-Dec-15 00:28N 51°25' E 003°44'0 0.0
2014-Dec-14 23:34N 51°25' E 003°44'0 0.0
2014-Dec-14 22:33N 51°25' E 003°44'0 0.0
2014-Dec-14 21:33N 51°25' E 003°44'0 0.0
2014-Dec-14 20:32N 51°25' E 003°44'0 0.0
2014-Dec-14 19:32N 51°25' E 003°44'0 0.0
2014-Dec-14 18:31N 51°25' E 003°44'0 0.0
2014-Dec-14 17:31N 51°25' E 003°44'0 0.0
2014-Dec-14 16:31N 51°25' E 003°44'0 0.0
2014-Dec-14 15:33N 51°25' E 003°44'0 0.0
2014-Dec-14 14:30N 51°25' E 003°44'0 0.0
2014-Dec-14 13:32N 51°25' E 003°44'0 0.0
2014-Dec-14 12:32N 51°25' E 003°44'0 0.0
2014-Dec-14 11:28N 51°25' E 003°44'0 0.0
2014-Dec-14 10:28N 51°25' E 003°44'0 0.0
2014-Dec-14 09:33N 51°25' E 003°44'0 0.0
2014-Dec-14 08:33N 51°25' E 003°44'0 0.0
2014-Dec-14 07:30N 51°25' E 003°44'0 0.0
2014-Dec-14 06:32N 51°25' E 003°44'0 0.0
2014-Dec-14 05:32N 51°25' E 003°44'0 0.0
2014-Dec-14 04:31N 51°25' E 003°44'0 0.0
2014-Dec-14 03:31N 51°25' E 003°44'0 0.0
2014-Dec-14 02:33N 51°25' E 003°44'0 0.0
2014-Dec-14 01:33N 51°25' E 003°44'0 0.0
2014-Dec-14 00:33N 51°25' E 003°44'0 0.0
2014-Dec-13 23:32N 51°25' E 003°44'0 0.0
2014-Dec-13 22:29N 51°25' E 003°44'0 0.0
2014-Dec-13 21:31N 51°25' E 003°44'0 0.0
2014-Dec-13 20:31N 51°25' E 003°44'0 0.0
2014-Dec-13 19:33N 51°25' E 003°44'3 2.6
2014-Dec-13 18:33N 51°26' E 003°40'6 6.4
2014-Dec-13 17:33N 51°25' E 003°30'9 9.4
2014-Dec-13 16:33N 51°25' E 003°15'1211.7
2014-Dec-13 15:33N 51°23' E 002°57'10 9.2
2014-Dec-13 14:29N 51°24' E 002°41'4 4.0
2014-Dec-13 13:32N 51°26' E 002°36'0 0.0
2014-Dec-13 12:29N 51°26' E 002°35'0 0.0
2014-Dec-13 11:31N 51°26' E 002°36'0 0.0
2014-Dec-13 10:31N 51°26' E 002°36'0 0.1
2014-Dec-13 09:33N 51°26' E 002°36'0 0.1
2014-Dec-13 08:33N 51°26' E 002°36'0 0.1
2014-Dec-13 07:33N 51°26' E 002°36'0 0.0
2014-Dec-13 06:32N 51°26' E 002°36'0 0.0
2014-Dec-13 05:32N 51°26' E 002°36'0 0.0
2014-Dec-13 04:31N 51°26' E 002°36'0 0.1
2014-Dec-13 03:25N 51°26' E 002°36'0 0.1
2014-Dec-13 02:33N 51°26' E 002°36'0 0.1
2014-Dec-13 01:33N 51°26' E 002°36'0 0.0
2014-Dec-13 00:29N 51°26' E 002°35'1 1.4
2014-Dec-12 23:33N 51°24' E 002°35'10 9.6
2014-Dec-12 22:28N 51°19' E 002°20'1111.8
2014-Dec-12 21:34N 51°22' E 002°04'1010.2
2014-Dec-12 20:34N 51°32' E 002°08'1312.8
2014-Dec-12 19:34N 51°41' E 002°22'29510.5
2014-Dec-11 15:32N 55°60' E 006°23'1010.2
2014-Dec-11 14:32N 56°09' E 006°30'78 8.3
2014-Dec-11 05:08N 57°11' E 007°57'89 8.2
2014-Dec-10 18:20N 57°49' E 010°27'810.8
2014-Dec-10 17:33N 57°48' E 010°43'1211.6
2014-Dec-10 16:33N 57°41' E 010°60'1313.0
2014-Dec-10 15:33N 57°32' E 011°17'1313.2
2014-Dec-10 14:33N 57°21' E 011°30'1313.5
2014-Dec-10 13:33N 57°08' E 011°39'1312.7
2014-Dec-10 12:33N 56°56' E 011°46'1212.1
2014-Dec-10 11:33N 56°45' E 011°53'13011.8
2014-Dec-10 00:31N 54°39' E 010°49'2411.8
2014-Dec-09 22:28N 54°31' E 011°28'1111.7
2014-Dec-09 21:33N 54°28' E 011°46'1212.0
2014-Dec-09 20:31N 54°27' E 012°07'1010.7
2014-Dec-09 19:33N 54°36' E 012°16'  

Dump ship's entire track history